sensor_id;sensor_type;location;lat;lon;timestamp;P1;durP1;ratioP1;P2;durP2;ratioP2
18738;SDS011;9498;51.862;19.460;2022-07-29T00:00:32;4.80;;;2.93;;
18738;SDS011;9498;51.862;19.460;2022-07-29T00:02:59;6.07;;;2.60;;
18738;SDS011;9498;51.862;19.460;2022-07-29T00:05:26;5.90;;;3.30;;
18738;SDS011;9498;51.862;19.460;2022-07-29T00:07:54;4.83;;;2.67;;
18738;SDS011;9498;51.862;19.460;2022-07-29T00:10:21;4.50;;;2.73;;
18738;SDS011;9498;51.862;19.460;2022-07-29T00:12:48;5.40;;;2.40;;
18738;SDS011;9498;51.862;19.460;2022-07-29T00:15:17;4.90;;;2.93;;
18738;SDS011;9498;51.862;19.460;2022-07-29T00:17:44;6.17;;;2.50;;
18738;SDS011;9498;51.862;19.460;2022-07-29T00:20:11;6.90;;;3.10;;
18738;SDS011;9498;51.862;19.460;2022-07-29T00:22:39;7.83;;;2.80;;
18738;SDS011;9498;51.862;19.460;2022-07-29T00:25:06;7.97;;;2.80;;
18738;SDS011;9498;51.862;19.460;2022-07-29T00:27:34;5.00;;;2.63;;
18738;SDS011;9498;51.862;19.460;2022-07-29T00:30:02;7.70;;;2.93;;
18738;SDS011;9498;51.862;19.460;2022-07-29T00:32:30;7.13;;;2.70;;
18738;SDS011;9498;51.862;19.460;2022-07-29T00:34:58;4.13;;;3.07;;
18738;SDS011;9498;51.862;19.460;2022-07-29T00:37:42;3.90;;;2.80;;
18738;SDS011;9498;51.862;19.460;2022-07-29T00:40:10;4.83;;;2.97;;
18738;SDS011;9498;51.862;19.460;2022-07-29T00:42:44;4.63;;;2.50;;
18738;SDS011;9498;51.862;19.460;2022-07-29T00:45:11;3.67;;;2.43;;
18738;SDS011;9498;51.862;19.460;2022-07-29T00:47:40;3.97;;;2.60;;
18738;SDS011;9498;51.862;19.460;2022-07-29T00:50:08;4.37;;;2.73;;
18738;SDS011;9498;51.862;19.460;2022-07-29T00:52:37;3.03;;;2.47;;
18738;SDS011;9498;51.862;19.460;2022-07-29T00:55:05;5.13;;;2.60;;
18738;SDS011;9498;51.862;19.460;2022-07-29T00:57:33;5.17;;;2.33;;
18738;SDS011;9498;51.862;19.460;2022-07-29T01:00:00;3.40;;;2.43;;
18738;SDS011;9498;51.862;19.460;2022-07-29T01:02:28;5.50;;;2.60;;
18738;SDS011;9498;51.862;19.460;2022-07-29T01:04:57;4.17;;;2.87;;
18738;SDS011;9498;51.862;19.460;2022-07-29T01:07:24;5.63;;;2.50;;
18738;SDS011;9498;51.862;19.460;2022-07-29T01:09:52;5.30;;;3.20;;
18738;SDS011;9498;51.862;19.460;2022-07-29T01:12:21;9.30;;;2.70;;
18738;SDS011;9498;51.862;19.460;2022-07-29T01:14:49;6.17;;;2.67;;
18738;SDS011;9498;51.862;19.460;2022-07-29T01:17:18;3.30;;;2.67;;
18738;SDS011;9498;51.862;19.460;2022-07-29T01:19:49;7.33;;;3.17;;
18738;SDS011;9498;51.862;19.460;2022-07-29T01:22:24;8.03;;;2.93;;
18738;SDS011;9498;51.862;19.460;2022-07-29T01:28:07;6.37;;;2.90;;
18738;SDS011;9498;51.862;19.460;2022-07-29T01:30:36;5.87;;;3.03;;
18738;SDS011;9498;51.862;19.460;2022-07-29T01:33:06;4.47;;;2.83;;
18738;SDS011;9498;51.862;19.460;2022-07-29T01:35:35;6.00;;;2.97;;
18738;SDS011;9498;51.862;19.460;2022-07-29T01:38:05;5.60;;;2.87;;
18738;SDS011;9498;51.862;19.460;2022-07-29T01:40:34;5.70;;;2.90;;
18738;SDS011;9498;51.862;19.460;2022-07-29T01:43:03;5.97;;;3.77;;
18738;SDS011;9498;51.862;19.460;2022-07-29T01:45:37;6.07;;;3.80;;
18738;SDS011;9498;51.862;19.460;2022-07-29T01:48:10;9.60;;;3.60;;
18738;SDS011;9498;51.862;19.460;2022-07-29T01:50:40;6.40;;;3.03;;
18738;SDS011;9498;51.862;19.460;2022-07-29T01:53:10;6.00;;;3.23;;
18738;SDS011;9498;51.862;19.460;2022-07-29T01:55:40;7.23;;;3.03;;
18738;SDS011;9498;51.862;19.460;2022-07-29T01:58:09;7.30;;;3.43;;
18738;SDS011;9498;51.862;19.460;2022-07-29T02:00:38;9.50;;;3.63;;
18738;SDS011;9498;51.862;19.460;2022-07-29T02:03:09;7.93;;;3.70;;
18738;SDS011;9498;51.862;19.460;2022-07-29T02:05:37;7.57;;;3.63;;
18738;SDS011;9498;51.862;19.460;2022-07-29T02:08:05;6.53;;;3.40;;
18738;SDS011;9498;51.862;19.460;2022-07-29T02:10:33;5.93;;;3.60;;
18738;SDS011;9498;51.862;19.460;2022-07-29T02:13:01;8.77;;;4.20;;
18738;SDS011;9498;51.862;19.460;2022-07-29T02:15:30;7.87;;;3.77;;
18738;SDS011;9498;51.862;19.460;2022-07-29T02:18:01;7.03;;;3.50;;
18738;SDS011;9498;51.862;19.460;2022-07-29T02:20:30;8.83;;;4.03;;
18738;SDS011;9498;51.862;19.460;2022-07-29T02:22:58;10.63;;;3.87;;
18738;SDS011;9498;51.862;19.460;2022-07-29T02:25:26;10.03;;;3.80;;
18738;SDS011;9498;51.862;19.460;2022-07-29T02:27:54;7.60;;;3.90;;
18738;SDS011;9498;51.862;19.460;2022-07-29T02:30:22;6.20;;;3.10;;
18738;SDS011;9498;51.862;19.460;2022-07-29T02:32:50;5.63;;;3.97;;
18738;SDS011;9498;51.862;19.460;2022-07-29T02:35:18;10.77;;;4.40;;
18738;SDS011;9498;51.862;19.460;2022-07-29T02:37:48;6.40;;;4.17;;
18738;SDS011;9498;51.862;19.460;2022-07-29T02:40:36;7.83;;;4.37;;
18738;SDS011;9498;51.862;19.460;2022-07-29T02:43:05;7.13;;;4.00;;
18738;SDS011;9498;51.862;19.460;2022-07-29T02:45:32;10.07;;;4.37;;
18738;SDS011;9498;51.862;19.460;2022-07-29T02:48:00;8.33;;;3.63;;
18738;SDS011;9498;51.862;19.460;2022-07-29T02:50:29;11.30;;;4.10;;
18738;SDS011;9498;51.862;19.460;2022-07-29T02:53:00;8.27;;;4.07;;
18738;SDS011;9498;51.862;19.460;2022-07-29T02:55:30;10.83;;;4.27;;
18738;SDS011;9498;51.862;19.460;2022-07-29T02:57:59;9.80;;;4.27;;
18738;SDS011;9498;51.862;19.460;2022-07-29T03:00:28;6.97;;;4.30;;
18738;SDS011;9498;51.862;19.460;2022-07-29T03:02:58;13.70;;;4.90;;
18738;SDS011;9498;51.862;19.460;2022-07-29T03:05:26;8.43;;;4.30;;
18738;SDS011;9498;51.862;19.460;2022-07-29T03:07:56;7.00;;;4.40;;
18738;SDS011;9498;51.862;19.460;2022-07-29T03:10:26;9.97;;;4.47;;
18738;SDS011;9498;51.862;19.460;2022-07-29T03:12:53;5.93;;;3.43;;
18738;SDS011;9498;51.862;19.460;2022-07-29T03:15:21;9.60;;;4.23;;
18738;SDS011;9498;51.862;19.460;2022-07-29T03:17:48;8.23;;;4.10;;
18738;SDS011;9498;51.862;19.460;2022-07-29T03:20:16;7.83;;;4.00;;
18738;SDS011;9498;51.862;19.460;2022-07-29T03:22:44;9.47;;;4.20;;
18738;SDS011;9498;51.862;19.460;2022-07-29T03:25:13;9.67;;;4.80;;
18738;SDS011;9498;51.862;19.460;2022-07-29T03:27:42;9.80;;;4.73;;
18738;SDS011;9498;51.862;19.460;2022-07-29T03:30:11;8.77;;;4.40;;
18738;SDS011;9498;51.862;19.460;2022-07-29T03:32:38;7.77;;;4.40;;
18738;SDS011;9498;51.862;19.460;2022-07-29T03:35:06;9.77;;;4.50;;
18738;SDS011;9498;51.862;19.460;2022-07-29T03:37:34;7.73;;;4.07;;
18738;SDS011;9498;51.862;19.460;2022-07-29T03:40:02;8.57;;;4.33;;
18738;SDS011;9498;51.862;19.460;2022-07-29T03:42:31;11.60;;;4.50;;
18738;SDS011;9498;51.862;19.460;2022-07-29T03:45:01;7.43;;;4.37;;
18738;SDS011;9498;51.862;19.460;2022-07-29T03:47:30;6.63;;;4.40;;
18738;SDS011;9498;51.862;19.460;2022-07-29T03:49:59;11.03;;;4.93;;
18738;SDS011;9498;51.862;19.460;2022-07-29T03:52:27;8.60;;;4.43;;
18738;SDS011;9498;51.862;19.460;2022-07-29T03:54:54;9.90;;;5.20;;
18738;SDS011;9498;51.862;19.460;2022-07-29T03:57:23;10.77;;;5.07;;
18738;SDS011;9498;51.862;19.460;2022-07-29T03:59:51;9.93;;;4.77;;
18738;SDS011;9498;51.862;19.460;2022-07-29T04:02:20;12.77;;;4.90;;
18738;SDS011;9498;51.862;19.460;2022-07-29T04:04:47;10.50;;;5.50;;
18738;SDS011;9498;51.862;19.460;2022-07-29T04:07:15;9.30;;;5.47;;
18738;SDS011;9498;51.862;19.460;2022-07-29T04:09:42;10.20;;;5.60;;
18738;SDS011;9498;51.862;19.460;2022-07-29T04:12:10;11.00;;;5.90;;
18738;SDS011;9498;51.862;19.460;2022-07-29T04:14:37;12.60;;;6.27;;
18738;SDS011;9498;51.862;19.460;2022-07-29T04:17:05;12.03;;;6.73;;
18738;SDS011;9498;51.862;19.460;2022-07-29T04:19:34;11.40;;;5.37;;
18738;SDS011;9498;51.862;19.460;2022-07-29T04:22:01;9.30;;;5.53;;
18738;SDS011;9498;51.862;19.460;2022-07-29T04:24:28;17.03;;;6.00;;
18738;SDS011;9498;51.862;19.460;2022-07-29T04:26:56;14.13;;;5.47;;
18738;SDS011;9498;51.862;19.460;2022-07-29T04:29:23;12.07;;;5.37;;
18738;SDS011;9498;51.862;19.460;2022-07-29T04:31:50;13.80;;;5.23;;
18738;SDS011;9498;51.862;19.460;2022-07-29T04:34:18;11.77;;;4.83;;
18738;SDS011;9498;51.862;19.460;2022-07-29T04:36:46;9.87;;;5.10;;
18738;SDS011;9498;51.862;19.460;2022-07-29T04:39:14;12.90;;;5.07;;
18738;SDS011;9498;51.862;19.460;2022-07-29T04:41:43;9.93;;;5.00;;
18738;SDS011;9498;51.862;19.460;2022-07-29T04:44:10;12.07;;;4.43;;
18738;SDS011;9498;51.862;19.460;2022-07-29T04:46:37;7.13;;;3.90;;
18738;SDS011;9498;51.862;19.460;2022-07-29T04:49:05;10.77;;;4.57;;
18738;SDS011;9498;51.862;19.460;2022-07-29T04:51:32;7.93;;;4.00;;
18738;SDS011;9498;51.862;19.460;2022-07-29T04:54:01;11.60;;;4.03;;
18738;SDS011;9498;51.862;19.460;2022-07-29T04:56:28;9.93;;;3.47;;
18738;SDS011;9498;51.862;19.460;2022-07-29T04:58:56;5.63;;;3.70;;
18738;SDS011;9498;51.862;19.460;2022-07-29T05:01:23;7.87;;;3.47;;
18738;SDS011;9498;51.862;19.460;2022-07-29T05:03:52;8.07;;;3.90;;
18738;SDS011;9498;51.862;19.460;2022-07-29T05:06:19;9.10;;;3.67;;
18738;SDS011;9498;51.862;19.460;2022-07-29T05:08:46;8.43;;;3.60;;
18738;SDS011;9498;51.862;19.460;2022-07-29T05:11:15;13.17;;;3.63;;
18738;SDS011;9498;51.862;19.460;2022-07-29T05:13:42;6.67;;;3.27;;
18738;SDS011;9498;51.862;19.460;2022-07-29T05:16:10;4.43;;;2.60;;
18738;SDS011;9498;51.862;19.460;2022-07-29T05:18:38;6.13;;;2.63;;
18738;SDS011;9498;51.862;19.460;2022-07-29T05:21:05;7.30;;;3.20;;
18738;SDS011;9498;51.862;19.460;2022-07-29T05:23:32;8.00;;;2.90;;
18738;SDS011;9498;51.862;19.460;2022-07-29T05:25:59;6.17;;;3.27;;
18738;SDS011;9498;51.862;19.460;2022-07-29T05:28:28;5.00;;;3.10;;
18738;SDS011;9498;51.862;19.460;2022-07-29T05:30:56;5.97;;;3.00;;
18738;SDS011;9498;51.862;19.460;2022-07-29T05:33:23;10.20;;;3.67;;
18738;SDS011;9498;51.862;19.460;2022-07-29T05:35:50;9.80;;;3.57;;
18738;SDS011;9498;51.862;19.460;2022-07-29T05:38:18;7.83;;;2.90;;
18738;SDS011;9498;51.862;19.460;2022-07-29T05:40:45;8.30;;;2.73;;
18738;SDS011;9498;51.862;19.460;2022-07-29T05:43:12;6.50;;;3.20;;
18738;SDS011;9498;51.862;19.460;2022-07-29T05:45:41;8.30;;;2.60;;
18738;SDS011;9498;51.862;19.460;2022-07-29T05:48:08;6.37;;;2.83;;
18738;SDS011;9498;51.862;19.460;2022-07-29T05:50:36;14.77;;;3.73;;
18738;SDS011;9498;51.862;19.460;2022-07-29T05:53:03;7.00;;;3.03;;
18738;SDS011;9498;51.862;19.460;2022-07-29T05:55:30;5.23;;;3.30;;
18738;SDS011;9498;51.862;19.460;2022-07-29T05:57:58;8.40;;;3.10;;
18738;SDS011;9498;51.862;19.460;2022-07-29T06:00:25;7.70;;;3.00;;
18738;SDS011;9498;51.862;19.460;2022-07-29T06:02:53;6.10;;;3.10;;
18738;SDS011;9498;51.862;19.460;2022-07-29T06:05:21;4.53;;;2.70;;
18738;SDS011;9498;51.862;19.460;2022-07-29T06:07:49;7.00;;;2.63;;
18738;SDS011;9498;51.862;19.460;2022-07-29T06:10:16;6.47;;;2.77;;
18738;SDS011;9498;51.862;19.460;2022-07-29T06:12:44;9.87;;;3.00;;
18738;SDS011;9498;51.862;19.460;2022-07-29T06:15:11;6.57;;;2.77;;
18738;SDS011;9498;51.862;19.460;2022-07-29T06:17:38;8.40;;;2.70;;
18738;SDS011;9498;51.862;19.460;2022-07-29T06:20:07;6.80;;;2.40;;
18738;SDS011;9498;51.862;19.460;2022-07-29T06:22:35;5.90;;;3.10;;
18738;SDS011;9498;51.862;19.460;2022-07-29T06:25:02;4.77;;;2.53;;
18738;SDS011;9498;51.862;19.460;2022-07-29T06:27:30;29.10;;;3.20;;
18738;SDS011;9498;51.862;19.460;2022-07-29T06:29:57;7.57;;;3.13;;
18738;SDS011;9498;51.862;19.460;2022-07-29T06:32:24;5.43;;;2.70;;
18738;SDS011;9498;51.862;19.460;2022-07-29T06:34:51;8.40;;;3.10;;
18738;SDS011;9498;51.862;19.460;2022-07-29T06:37:20;7.70;;;3.13;;
18738;SDS011;9498;51.862;19.460;2022-07-29T06:39:48;8.90;;;3.23;;
18738;SDS011;9498;51.862;19.460;2022-07-29T06:42:36;5.53;;;2.70;;
18738;SDS011;9498;51.862;19.460;2022-07-29T06:45:03;7.77;;;3.50;;
18738;SDS011;9498;51.862;19.460;2022-07-29T06:47:31;4.63;;;3.03;;
18738;SDS011;9498;51.862;19.460;2022-07-29T06:49:58;9.63;;;3.47;;
18738;SDS011;9498;51.862;19.460;2022-07-29T06:52:27;4.27;;;2.80;;
18738;SDS011;9498;51.862;19.460;2022-07-29T06:54:54;6.87;;;2.93;;
18738;SDS011;9498;51.862;19.460;2022-07-29T06:57:22;5.70;;;3.27;;
18738;SDS011;9498;51.862;19.460;2022-07-29T06:59:49;7.07;;;3.00;;
18738;SDS011;9498;51.862;19.460;2022-07-29T07:02:16;6.27;;;2.73;;
18738;SDS011;9498;51.862;19.460;2022-07-29T07:04:43;6.68;;;2.70;;
18738;SDS011;9498;51.862;19.460;2022-07-29T07:07:11;9.40;;;2.60;;
18738;SDS011;9498;51.862;19.460;2022-07-29T07:09:40;6.00;;;2.90;;
18738;SDS011;9498;51.862;19.460;2022-07-29T07:12:07;4.13;;;2.50;;
18738;SDS011;9498;51.862;19.460;2022-07-29T07:14:34;7.27;;;2.70;;
18738;SDS011;9498;51.862;19.460;2022-07-29T07:17:02;10.03;;;2.90;;
18738;SDS011;9498;51.862;19.460;2022-07-29T07:19:29;5.00;;;2.73;;
18738;SDS011;9498;51.862;19.460;2022-07-29T07:21:56;5.67;;;2.30;;
18738;SDS011;9498;51.862;19.460;2022-07-29T07:24:24;5.03;;;2.20;;
18738;SDS011;9498;51.862;19.460;2022-07-29T07:26:53;4.97;;;2.30;;
18738;SDS011;9498;51.862;19.460;2022-07-29T07:29:20;3.87;;;2.30;;
18738;SDS011;9498;51.862;19.460;2022-07-29T07:31:47;4.60;;;2.20;;
18738;SDS011;9498;51.862;19.460;2022-07-29T07:34:14;12.87;;;2.37;;
18738;SDS011;9498;51.862;19.460;2022-07-29T07:36:42;6.10;;;2.27;;
18738;SDS011;9498;51.862;19.460;2022-07-29T07:39:09;5.40;;;2.30;;
18738;SDS011;9498;51.862;19.460;2022-07-29T07:41:36;6.30;;;2.33;;
18738;SDS011;9498;51.862;19.460;2022-07-29T07:44:05;3.47;;;1.77;;
18738;SDS011;9498;51.862;19.460;2022-07-29T07:46:32;7.80;;;2.00;;
18738;SDS011;9498;51.862;19.460;2022-07-29T07:48:59;5.47;;;2.43;;
18738;SDS011;9498;51.862;19.460;2022-07-29T07:51:27;6.07;;;2.40;;
18738;SDS011;9498;51.862;19.460;2022-07-29T07:53:54;6.23;;;2.10;;
18738;SDS011;9498;51.862;19.460;2022-07-29T07:56:21;7.43;;;1.73;;
18738;SDS011;9498;51.862;19.460;2022-07-29T07:58:49;6.10;;;1.97;;
18738;SDS011;9498;51.862;19.460;2022-07-29T08:01:17;5.13;;;2.20;;
18738;SDS011;9498;51.862;19.460;2022-07-29T08:03:47;5.50;;;2.07;;
18738;SDS011;9498;51.862;19.460;2022-07-29T08:06:15;5.73;;;1.83;;
18738;SDS011;9498;51.862;19.460;2022-07-29T08:08:42;4.57;;;1.77;;
18738;SDS011;9498;51.862;19.460;2022-07-29T08:11:09;3.93;;;2.20;;
18738;SDS011;9498;51.862;19.460;2022-07-29T08:13:37;5.17;;;1.80;;
18738;SDS011;9498;51.862;19.460;2022-07-29T08:16:05;5.90;;;2.00;;
18738;SDS011;9498;51.862;19.460;2022-07-29T08:18:39;1.53;;;1.37;;
18738;SDS011;9498;51.862;19.460;2022-07-29T08:21:07;5.70;;;1.60;;
18738;SDS011;9498;51.862;19.460;2022-07-29T08:23:34;3.27;;;1.53;;
18738;SDS011;9498;51.862;19.460;2022-07-29T08:26:04;2.60;;;1.53;;
18738;SDS011;9498;51.862;19.460;2022-07-29T08:28:35;4.73;;;1.40;;
18738;SDS011;9498;51.862;19.460;2022-07-29T08:31:02;9.17;;;1.60;;
18738;SDS011;9498;51.862;19.460;2022-07-29T08:33:30;1.90;;;1.10;;
18738;SDS011;9498;51.862;19.460;2022-07-29T08:35:58;2.60;;;1.63;;
18738;SDS011;9498;51.862;19.460;2022-07-29T08:38:26;2.57;;;1.57;;
18738;SDS011;9498;51.862;19.460;2022-07-29T08:40:53;5.97;;;1.60;;
18738;SDS011;9498;51.862;19.460;2022-07-29T08:43:20;3.07;;;1.40;;
18738;SDS011;9498;51.862;19.460;2022-07-29T08:45:48;5.13;;;1.77;;
18738;SDS011;9498;51.862;19.460;2022-07-29T08:48:17;4.93;;;1.43;;
18738;SDS011;9498;51.862;19.460;2022-07-29T08:50:45;3.73;;;1.50;;
18738;SDS011;9498;51.862;19.460;2022-07-29T08:53:15;2.47;;;1.30;;
18738;SDS011;9498;51.862;19.460;2022-07-29T08:55:43;5.97;;;1.87;;
18738;SDS011;9498;51.862;19.460;2022-07-29T08:58:10;9.20;;;1.47;;
18738;SDS011;9498;51.862;19.460;2022-07-29T09:00:40;4.80;;;1.60;;
18738;SDS011;9498;51.862;19.460;2022-07-29T09:03:08;6.43;;;1.50;;
18738;SDS011;9498;51.862;19.460;2022-07-29T09:05:36;4.63;;;1.23;;
18738;SDS011;9498;51.862;19.460;2022-07-29T09:08:03;5.50;;;1.50;;
18738;SDS011;9498;51.862;19.460;2022-07-29T09:10:32;6.33;;;1.67;;
18738;SDS011;9498;51.862;19.460;2022-07-29T09:13:01;6.00;;;1.53;;
18738;SDS011;9498;51.862;19.460;2022-07-29T09:15:29;3.93;;;1.60;;
18738;SDS011;9498;51.862;19.460;2022-07-29T09:17:56;5.73;;;1.50;;
18738;SDS011;9498;51.862;19.460;2022-07-29T09:20:25;4.53;;;1.40;;
18738;SDS011;9498;51.862;19.460;2022-07-29T09:23:12;5.33;;;1.50;;
18738;SDS011;9498;51.862;19.460;2022-07-29T09:25:41;4.97;;;1.40;;
18738;SDS011;9498;51.862;19.460;2022-07-29T09:28:09;2.87;;;1.50;;
18738;SDS011;9498;51.862;19.460;2022-07-29T09:30:36;1.83;;;1.13;;
18738;SDS011;9498;51.862;19.460;2022-07-29T09:33:16;15.27;;;1.63;;
18738;SDS011;9498;51.862;19.460;2022-07-29T09:35:44;2.43;;;1.40;;
18738;SDS011;9498;51.862;19.460;2022-07-29T09:38:11;2.80;;;1.20;;
18738;SDS011;9498;51.862;19.460;2022-07-29T09:40:40;11.53;;;1.67;;
18738;SDS011;9498;51.862;19.460;2022-07-29T09:43:11;2.20;;;1.30;;
18738;SDS011;9498;51.862;19.460;2022-07-29T09:45:39;2.67;;;1.20;;
18738;SDS011;9498;51.862;19.460;2022-07-29T09:48:13;4.67;;;1.13;;
18738;SDS011;9498;51.862;19.460;2022-07-29T09:50:41;2.53;;;1.30;;
18738;SDS011;9498;51.862;19.460;2022-07-29T09:53:10;2.00;;;1.10;;
18738;SDS011;9498;51.862;19.460;2022-07-29T09:55:48;4.67;;;1.63;;
18738;SDS011;9498;51.862;19.460;2022-07-29T09:58:16;4.13;;;1.60;;
18738;SDS011;9498;51.862;19.460;2022-07-29T10:00:44;5.17;;;1.50;;
18738;SDS011;9498;51.862;19.460;2022-07-29T10:03:12;3.43;;;1.53;;
18738;SDS011;9498;51.862;19.460;2022-07-29T10:05:39;4.10;;;1.50;;
18738;SDS011;9498;51.862;19.460;2022-07-29T10:08:07;4.60;;;1.70;;
18738;SDS011;9498;51.862;19.460;2022-07-29T10:10:35;2.23;;;1.27;;
18738;SDS011;9498;51.862;19.460;2022-07-29T10:13:05;5.10;;;1.50;;
18738;SDS011;9498;51.862;19.460;2022-07-29T10:15:34;4.53;;;1.57;;
18738;SDS011;9498;51.862;19.460;2022-07-29T10:18:04;2.47;;;1.60;;
18738;SDS011;9498;51.862;19.460;2022-07-29T10:20:31;2.40;;;1.27;;
18738;SDS011;9498;51.862;19.460;2022-07-29T10:22:58;3.03;;;1.33;;
18738;SDS011;9498;51.862;19.460;2022-07-29T10:25:26;3.38;;;1.40;;
18738;SDS011;9498;51.862;19.460;2022-07-29T10:27:53;3.60;;;1.40;;
18738;SDS011;9498;51.862;19.460;2022-07-29T10:30:22;5.37;;;1.67;;
18738;SDS011;9498;51.862;19.460;2022-07-29T10:33:08;2.87;;;1.30;;
18738;SDS011;9498;51.862;19.460;2022-07-29T10:35:53;2.93;;;1.33;;
18738;SDS011;9498;51.862;19.460;2022-07-29T10:38:34;1.83;;;1.40;;
18738;SDS011;9498;51.862;19.460;2022-07-29T10:41:08;6.67;;;1.57;;
18738;SDS011;9498;51.862;19.460;2022-07-29T10:43:52;3.20;;;1.60;;
18738;SDS011;9498;51.862;19.460;2022-07-29T10:46:22;3.30;;;1.50;;
18738;SDS011;9498;51.862;19.460;2022-07-29T10:49:05;4.30;;;1.43;;
18738;SDS011;9498;51.862;19.460;2022-07-29T10:51:51;3.53;;;1.70;;
18738;SDS011;9498;51.862;19.460;2022-07-29T10:54:35;2.43;;;1.30;;
18738;SDS011;9498;51.862;19.460;2022-07-29T10:57:10;3.87;;;1.53;;
18738;SDS011;9498;51.862;19.460;2022-07-29T10:59:37;5.10;;;1.53;;
18738;SDS011;9498;51.862;19.460;2022-07-29T11:10:38;3.43;;;1.57;;
18738;SDS011;9498;51.862;19.460;2022-07-29T11:13:06;3.13;;;1.50;;
18738;SDS011;9498;51.862;19.460;2022-07-29T11:15:51;3.23;;;1.30;;
18738;SDS011;9498;51.862;19.460;2022-07-29T11:18:19;3.00;;;1.60;;
18738;SDS011;9498;51.862;19.460;2022-07-29T11:20:47;7.50;;;1.47;;
18738;SDS011;9498;51.862;19.460;2022-07-29T11:23:19;5.15;;;1.67;;
18738;SDS011;9498;51.862;19.460;2022-07-29T11:28:32;6.00;;;1.60;;
18738;SDS011;9498;51.862;19.460;2022-07-29T11:31:00;3.23;;;1.33;;
18738;SDS011;9498;51.862;19.460;2022-07-29T11:33:28;5.77;;;1.70;;
18738;SDS011;9498;51.862;19.460;2022-07-29T11:36:08;5.70;;;1.40;;
18738;SDS011;9498;51.862;19.460;2022-07-29T11:38:36;4.03;;;1.73;;
18738;SDS011;9498;51.862;19.460;2022-07-29T11:41:19;5.57;;;1.40;;
18738;SDS011;9498;51.862;19.460;2022-07-29T11:43:49;5.40;;;1.50;;
18738;SDS011;9498;51.862;19.460;2022-07-29T11:46:18;3.07;;;1.40;;
18738;SDS011;9498;51.862;19.460;2022-07-29T11:48:45;2.30;;;1.20;;
18738;SDS011;9498;51.862;19.460;2022-07-29T11:51:13;5.43;;;1.20;;
18738;SDS011;9498;51.862;19.460;2022-07-29T11:53:40;6.67;;;1.50;;
18738;SDS011;9498;51.862;19.460;2022-07-29T11:56:13;7.10;;;1.40;;
18738;SDS011;9498;51.862;19.460;2022-07-29T11:58:41;2.80;;;1.40;;
18738;SDS011;9498;51.862;19.460;2022-07-29T12:01:13;2.92;;;1.23;;
18738;SDS011;9498;51.862;19.460;2022-07-29T12:03:43;1.93;;;1.20;;
18738;SDS011;9498;51.862;19.460;2022-07-29T12:06:11;4.13;;;1.40;;
18738;SDS011;9498;51.862;19.460;2022-07-29T12:08:39;3.17;;;1.10;;
18738;SDS011;9498;51.862;19.460;2022-07-29T12:11:14;5.33;;;1.20;;
18738;SDS011;9498;51.862;19.460;2022-07-29T12:13:42;3.67;;;1.30;;
18738;SDS011;9498;51.862;19.460;2022-07-29T12:16:09;2.80;;;1.20;;
18738;SDS011;9498;51.862;19.460;2022-07-29T12:18:38;2.73;;;1.50;;
18738;SDS011;9498;51.862;19.460;2022-07-29T12:21:05;5.43;;;1.40;;
18738;SDS011;9498;51.862;19.460;2022-07-29T12:23:33;9.23;;;1.57;;
18738;SDS011;9498;51.862;19.460;2022-07-29T12:26:03;4.53;;;1.40;;
18738;SDS011;9498;51.862;19.460;2022-07-29T12:28:30;5.77;;;1.40;;
18738;SDS011;9498;51.862;19.460;2022-07-29T12:31:03;2.10;;;1.23;;
18738;SDS011;9498;51.862;19.460;2022-07-29T12:33:31;9.27;;;1.57;;
18738;SDS011;9498;51.862;19.460;2022-07-29T12:36:01;5.70;;;1.47;;
18738;SDS011;9498;51.862;19.460;2022-07-29T12:38:29;12.47;;;1.40;;
18738;SDS011;9498;51.862;19.460;2022-07-29T12:40:57;4.60;;;1.37;;
18738;SDS011;9498;51.862;19.460;2022-07-29T12:43:24;3.43;;;1.27;;
18738;SDS011;9498;51.862;19.460;2022-07-29T12:45:52;3.13;;;1.40;;
18738;SDS011;9498;51.862;19.460;2022-07-29T12:48:32;4.87;;;1.60;;
18738;SDS011;9498;51.862;19.460;2022-07-29T12:51:01;6.23;;;1.30;;
18738;SDS011;9498;51.862;19.460;2022-07-29T12:53:29;2.80;;;1.50;;
18738;SDS011;9498;51.862;19.460;2022-07-29T12:55:57;3.47;;;1.20;;
18738;SDS011;9498;51.862;19.460;2022-07-29T12:58:30;1.73;;;1.23;;
18738;SDS011;9498;51.862;19.460;2022-07-29T13:00:59;5.43;;;1.50;;
18738;SDS011;9498;51.862;19.460;2022-07-29T13:03:26;8.83;;;1.50;;
18738;SDS011;9498;51.862;19.460;2022-07-29T13:05:54;4.27;;;1.30;;
18738;SDS011;9498;51.862;19.460;2022-07-29T13:08:23;3.70;;;1.40;;
18738;SDS011;9498;51.862;19.460;2022-07-29T13:10:50;2.73;;;1.10;;
18738;SDS011;9498;51.862;19.460;2022-07-29T13:13:17;4.83;;;1.30;;
18738;SDS011;9498;51.862;19.460;2022-07-29T13:15:45;4.03;;;1.20;;
18738;SDS011;9498;51.862;19.460;2022-07-29T13:20:55;3.57;;;1.30;;
18738;SDS011;9498;51.862;19.460;2022-07-29T13:23:24;1.90;;;1.10;;
18738;SDS011;9498;51.862;19.460;2022-07-29T13:25:51;3.77;;;1.20;;
18738;SDS011;9498;51.862;19.460;2022-07-29T13:28:19;3.57;;;1.50;;
18738;SDS011;9498;51.862;19.460;2022-07-29T13:30:46;6.87;;;1.33;;
18738;SDS011;9498;51.862;19.460;2022-07-29T13:33:14;3.00;;;1.30;;
18738;SDS011;9498;51.862;19.460;2022-07-29T13:35:41;3.57;;;1.43;;
18738;SDS011;9498;51.862;19.460;2022-07-29T13:38:08;1.90;;;1.20;;
18738;SDS011;9498;51.862;19.460;2022-07-29T13:40:38;17.83;;;1.70;;
18738;SDS011;9498;51.862;19.460;2022-07-29T13:43:05;3.73;;;1.40;;
18738;SDS011;9498;51.862;19.460;2022-07-29T13:45:35;2.83;;;1.30;;
18738;SDS011;9498;51.862;19.460;2022-07-29T13:48:03;2.93;;;1.57;;
18738;SDS011;9498;51.862;19.460;2022-07-29T13:50:31;6.50;;;1.30;;
18738;SDS011;9498;51.862;19.460;2022-07-29T13:52:58;2.93;;;1.30;;
18738;SDS011;9498;51.862;19.460;2022-07-29T13:55:26;4.63;;;1.20;;
18738;SDS011;9498;51.862;19.460;2022-07-29T13:57:54;3.80;;;1.50;;
18738;SDS011;9498;51.862;19.460;2022-07-29T14:00:22;2.63;;;1.40;;
18738;SDS011;9498;51.862;19.460;2022-07-29T14:02:49;3.97;;;1.30;;
18738;SDS011;9498;51.862;19.460;2022-07-29T14:05:17;5.07;;;1.67;;
18738;SDS011;9498;51.862;19.460;2022-07-29T14:07:44;4.00;;;1.80;;
18738;SDS011;9498;51.862;19.460;2022-07-29T14:10:12;5.70;;;1.60;;
18738;SDS011;9498;51.862;19.460;2022-07-29T14:12:39;3.57;;;1.40;;
18738;SDS011;9498;51.862;19.460;2022-07-29T14:15:08;4.93;;;1.50;;
18738;SDS011;9498;51.862;19.460;2022-07-29T14:17:36;4.57;;;1.40;;
18738;SDS011;9498;51.862;19.460;2022-07-29T14:20:03;5.83;;;1.40;;
18738;SDS011;9498;51.862;19.460;2022-07-29T14:22:31;2.23;;;1.40;;
18738;SDS011;9498;51.862;19.460;2022-07-29T14:24:58;3.60;;;1.77;;
18738;SDS011;9498;51.862;19.460;2022-07-29T14:27:26;3.77;;;1.30;;
18738;SDS011;9498;51.862;19.460;2022-07-29T14:29:53;5.60;;;1.70;;
18738;SDS011;9498;51.862;19.460;2022-07-29T14:32:22;19.33;;;2.00;;
18738;SDS011;9498;51.862;19.460;2022-07-29T14:34:49;5.87;;;1.30;;
18738;SDS011;9498;51.862;19.460;2022-07-29T14:37:16;3.43;;;1.70;;
18738;SDS011;9498;51.862;19.460;2022-07-29T14:39:44;4.33;;;1.20;;
18738;SDS011;9498;51.862;19.460;2022-07-29T14:42:11;3.77;;;1.50;;
18738;SDS011;9498;51.862;19.460;2022-07-29T14:44:39;3.77;;;1.50;;
18738;SDS011;9498;51.862;19.460;2022-07-29T14:47:06;6.47;;;1.53;;
18738;SDS011;9498;51.862;19.460;2022-07-29T14:49:35;3.77;;;1.53;;
18738;SDS011;9498;51.862;19.460;2022-07-29T14:52:03;2.37;;;1.40;;
18738;SDS011;9498;51.862;19.460;2022-07-29T14:54:30;3.63;;;1.60;;
18738;SDS011;9498;51.862;19.460;2022-07-29T14:56:57;2.17;;;1.37;;
18738;SDS011;9498;51.862;19.460;2022-07-29T14:59:25;4.37;;;1.40;;
18738;SDS011;9498;51.862;19.460;2022-07-29T15:01:52;4.67;;;1.47;;
18738;SDS011;9498;51.862;19.460;2022-07-29T15:04:20;6.23;;;1.60;;
18738;SDS011;9498;51.862;19.460;2022-07-29T15:06:49;3.23;;;1.53;;
18738;SDS011;9498;51.862;19.460;2022-07-29T15:09:16;2.90;;;1.57;;
18738;SDS011;9498;51.862;19.460;2022-07-29T15:11:44;4.40;;;1.70;;